Terminal Aerodrome Forecast
Issued by NWS Jackson, MS

Home | Current Version | Previous Version | Text Only | Print | Product List | Glossary On
Versions: 1 2 3 4 5 6 7 8 9 10 11 12 13 14 15 16 17
000
FTUS44 KJAN 291150 RRB
TAFMEI
TAF
KMEI 291150Z 2912/3012 VRB04KT P6SM FEW009 SCT020
     FM291430 16008KT P6SM SCT015 BKN030
     FM291630 16010G19KT P6SM SCT020 BKN040
     FM300100 17006KT P6SM SCT025 BKN050=

USA.gov is the U.S. government's official web portal to all federal, state and local government web resources and services.